Time;durP1;ratioP1;P1;durP2;ratioP2;P2;SDS_P1;SDS_P2;PMS_P1;PMS_P2;Temp;Humidity;BMP_temperature;BMP_pressure;BME280_temperature;BME280_humidity;BME280_pressure;Samples;Min_cycle;Max_cycle;Signal;HPM_P1;HPM_P2
2022/10/14 00:00:08;;;;;;;12.27;6.60;;;;;;;11.16;100.00;97542.69;5029489;28;20041;-67
2022/10/14 00:02:36;;;;;;;9.52;6.07;;;;;;;11.20;100.00;97543.84;5028485;28;20056;-67
2022/10/14 00:05:03;;;;;;;11.48;6.38;;;;;;;11.04;100.00;97537.41;5028682;28;20033;-67
2022/10/14 00:07:30;;;;;;;12.50;6.07;;;;;;;10.98;100.00;97536.53;5028459;28;20121;-67
2022/10/14 00:09:56;;;;;;;11.68;6.32;;;;;;;10.95;100.00;97539.75;5028407;28;20120;-67
2022/10/14 00:12:23;;;;;;;9.73;6.30;;;;;;;11.00;100.00;97538.97;5027178;28;20073;-67
2022/10/14 00:14:49;;;;;;;12.10;6.53;;;;;;;11.06;100.00;97533.38;5028788;28;20219;-67
2022/10/14 00:17:16;;;;;;;14.23;6.93;;;;;;;11.03;100.00;97527.66;5027327;28;20041;-67
2022/10/14 00:19:42;;;;;;;10.38;5.75;;;;;;;11.17;100.00;97537.03;5027471;28;20120;-67
2022/10/14 00:22:08;;;;;;;14.40;5.82;;;;;;;11.16;100.00;97537.28;5027845;28;20041;-67
2022/10/14 00:24:35;;;;;;;9.95;5.07;;;;;;;11.27;100.00;97530.94;5027926;28;20531;-67
2022/10/14 00:27:01;;;;;;;8.27;5.65;;;;;;;11.25;100.00;97534.97;5028734;28;20046;-67
2022/10/14 00:29:28;;;;;;;7.95;4.93;;;;;;;11.26;100.00;97532.00;5043075;28;20152;-67
2022/10/14 00:31:54;;;;;;;9.55;5.03;;;;;;;11.28;100.00;97534.47;5027874;28;20046;-67
2022/10/14 00:34:21;;;;;;;10.05;5.78;;;;;;;11.15;100.00;97532.94;5028068;28;20045;-67
2022/10/14 00:36:47;;;;;;;12.10;5.50;;;;;;;11.12;100.00;97536.16;5027750;28;20051;-67
2022/10/14 00:39:17;;;;;;;11.73;5.57;;;;;;;11.16;100.00;97537.28;5027992;28;20041;-67
2022/10/14 00:41:44;;;;;;;10.60;5.40;;;;;;;11.25;100.00;97545.81;5027164;28;20420;-67
2022/10/14 00:44:13;;;;;;;10.48;5.13;;;;;;;11.28;100.00;97545.31;5027881;28;20037;-67
2022/10/14 00:46:42;;;;;;;9.35;5.57;;;;;;;11.24;100.00;97539.56;5026388;28;20077;-67
2022/10/14 00:49:10;;;;;;;11.90;5.85;;;;;;;11.17;100.00;97545.16;5027565;28;20049;-67
2022/10/14 00:51:39;;;;;;;10.63;5.35;;;;;;;11.20;100.00;97546.56;5026306;28;20124;-67
2022/10/14 00:54:07;;;;;;;10.75;5.82;;;;;;;11.13;100.00;97545.94;5027724;28;20057;-67
2022/10/14 00:56:34;;;;;;;8.55;5.13;;;;;;;11.14;100.00;97550.28;5026400;28;20140;-67
2022/10/14 00:59:03;;;;;;;12.75;5.68;;;;;;;11.14;100.00;97542.97;5026344;28;20495;-67
2022/10/14 01:01:30;;;;;;;11.75;6.05;;;;;;;11.05;100.00;97539.03;5027481;28;20091;-67
2022/10/14 01:03:56;;;;;;;9.27;6.30;;;;;;;10.95;100.00;97545.16;5027110;28;20076;-67
2022/10/14 01:06:42;;;;;;;10.88;6.30;;;;;;;11.01;100.00;97546.88;5027005;28;20041;-67
2022/10/14 01:09:48;;;;;;;9.77;6.60;;;;;;;10.96;100.00;97541.38;5025846;28;20041;-67
2022/10/14 01:12:32;;;;;;;11.27;6.07;;;;;;;10.99;100.00;97548.19;5033895;28;20060;-67
2022/10/14 01:15:25;;;;;;;9.23;5.80;;;;;;;10.92;100.00;97543.75;5027201;28;20069;-67
2022/10/14 01:18:13;;;;;;;10.75;6.25;;;;;;;10.92;100.00;97549.16;5026805;28;20504;-67
2022/10/14 01:20:57;;;;;;;11.27;6.22;;;;;;;10.85;100.00;97542.31;5026789;28;20045;-66
2022/10/14 01:23:45;;;;;;;11.05;6.18;;;;;;;10.87;100.00;97545.59;5026319;28;20535;-66
2022/10/14 01:26:42;;;;;;;12.43;7.20;;;;;;;10.89;100.00;97544.28;5026804;28;20041;-66
2022/10/14 01:29:25;;;;;;;14.45;6.60;;;;;;;10.87;100.00;97537.47;5027276;28;20057;-66
2022/10/14 01:32:05;;;;;;;11.13;6.03;;;;;;;10.92;100.00;97537.53;5026804;28;20042;-66
2022/10/14 01:34:45;;;;;;;7.45;5.00;;;;;;;11.08;100.00;97532.28;5025894;28;20045;-66
2022/10/14 01:37:22;;;;;;;8.15;5.47;;;;;;;11.11;100.00;97527.22;5007293;28;20056;-66
2022/10/14 01:39:58;;;;;;;9.05;5.65;;;;;;;11.16;100.00;97529.97;5022799;28;20137;-66
2022/10/14 01:42:32;;;;;;;10.85;5.65;;;;;;;11.14;100.00;97524.00;5014843;28;20389;-66
2022/10/14 01:45:09;;;;;;;8.88;5.68;;;;;;;11.20;100.00;97533.00;5026745;28;20065;-66
2022/10/14 01:47:38;;;;;;;9.27;5.35;;;;;;;11.16;100.00;97526.44;5026227;28;20041;-66
2022/10/14 01:50:14;;;;;;;8.10;4.72;;;;;;;11.19;100.00;97531.38;5026708;28;20127;-66
2022/10/14 01:52:50;;;;;;;9.50;5.03;;;;;;;11.22;100.00;97532.75;5026427;28;20050;-66
2022/10/14 01:55:22;;;;;;;7.80;5.10;;;;;;;11.12;100.00;97536.16;5026954;28;20037;-66
2022/10/14 01:57:50;;;;;;;;;;;;;;;10.93;100.00;97536.44;5025753;28;20049;-66
2022/10/14 02:00:17;;;;;;;7.88;5.10;;;;;;;10.84;100.00;97537.97;5025107;28;19944;-66
2022/10/14 02:02:44;;;;;;;12.63;5.88;;;;;;;10.77;100.00;97546.25;5024963;28;20137;-66
2022/10/14 02:05:16;;;;;;;14.80;6.80;;;;;;;10.69;100.00;97538.56;5025000;28;20393;-66
2022/10/14 02:07:47;;;;;;;12.00;6.45;;;;;;;10.65;100.00;97544.47;5026622;28;20129;-66
2022/10/14 02:10:28;;;;;;;12.60;6.28;;;;;;;10.61;100.00;97543.31;5025108;28;20547;-66
2022/10/14 02:13:16;;;;;;;11.57;6.15;;;;;;;10.65;100.00;97540.97;5024487;28;20117;-66
2022/10/14 02:16:24;;;;;;;11.57;7.22;;;;;;;10.59;100.00;97547.34;5023303;28;20576;-66
2022/10/14 02:19:15;;;;;;;11.05;5.78;;;;;;;10.57;100.00;97541.38;5015334;28;20164;-66
2022/10/14 02:21:52;;;;;;;11.10;6.18;;;;;;;10.51;100.00;97543.97;5025852;28;20045;-66
2022/10/14 02:24:36;;;;;;;12.18;7.03;;;;;;;10.49;100.00;97538.00;5024897;28;20077;-66
2022/10/14 02:27:07;;;;;;;14.40;6.43;;;;;;;10.51;100.00;97533.16;5025488;28;20053;-66
2022/10/14 02:29:37;;;;;;;15.90;7.63;;;;;;;10.63;100.00;97534.94;5024334;28;20056;-66
2022/10/14 02:32:06;;;;;;;12.77;6.85;;;;;;;10.57;100.00;97525.94;5026063;28;20413;-66
2022/10/14 02:34:34;;;;;;;12.88;7.13;;;;;;;10.52;100.00;97515.84;5027298;28;20120;-66
2022/10/14 02:37:01;;;;;;;13.85;6.70;;;;;;;10.62;100.00;97514.38;5021819;28;20053;-66
2022/10/14 02:39:35;;;;;;;13.05;6.53;;;;;;;10.62;100.00;97509.75;5009892;28;20485;-66
2022/10/14 02:42:04;;;;;;;10.50;6.18;;;;;;;10.58;100.00;97505.91;5016809;28;20080;-66
2022/10/14 02:44:32;;;;;;;12.80;5.75;;;;;;;10.59;100.00;97506.72;5030859;28;20382;-66
2022/10/14 02:46:59;;;;;;;12.65;6.38;;;;;;;10.54;100.00;97500.19;5029328;28;20136;-66
2022/10/14 02:49:28;;;;;;;8.32;5.85;;;;;;;10.50;100.00;97507.16;5028422;28;20539;-66
2022/10/14 02:51:55;;;;;;;11.77;7.15;;;;;;;10.46;100.00;97506.00;5028718;28;20121;-66
2022/10/14 02:54:21;;;;;;;10.70;6.22;;;;;;;10.45;100.00;97501.66;5029125;28;20071;-66
2022/10/14 02:56:48;;;;;;;12.60;7.60;;;;;;;10.45;100.00;97500.84;5029493;28;20042;-66
2022/10/14 02:59:14;;;;;;;12.15;6.45;;;;;;;10.46;100.00;97497.88;5028407;28;20112;-66
2022/10/14 03:01:41;;;;;;;11.20;6.05;;;;;;;10.48;100.00;97492.22;5026857;28;20050;-66
2022/10/14 03:04:08;;;;;;;14.18;6.00;;;;;;;10.49;100.00;97491.16;5028566;28;20048;-67
2022/10/14 03:06:35;;;;;;;9.23;5.95;;;;;;;10.52;100.00;97483.38;5028815;28;20076;-66
2022/10/14 03:09:02;;;;;;;10.35;5.75;;;;;;;10.59;100.00;97477.78;5028506;28;20073;-66
2022/10/14 03:11:32;;;;;;;13.30;5.60;;;;;;;10.52;100.00;97474.41;5026315;28;20050;-66
2022/10/14 03:14:03;;;;;;;10.13;5.63;;;;;;;10.48;100.00;97476.00;5037028;28;20297;-66
2022/10/14 03:16:30;;;;;;;10.05;5.75;;;;;;;10.43;100.00;97479.41;5018090;28;20060;-66
2022/10/14 03:18:57;;;;;;;9.82;5.18;;;;;;;10.50;100.00;97476.53;5028053;28;20095;-66
2022/10/14 03:21:38;;;;;;;13.02;6.30;;;;;;;10.48;100.00;97482.22;5027603;28;20049;-66
2022/10/14 03:24:08;;;;;;;9.85;5.57;;;;;;;10.46;100.00;97470.81;5024587;28;20129;-66
2022/10/14 03:26:36;;;;;;;11.02;6.38;;;;;;;10.48;100.00;97474.09;5008716;28;20046;-66
2022/10/14 03:29:02;;;;;;;10.52;5.82;;;;;;;10.47;100.00;97466.22;5012092;28;20041;-66
2022/10/14 03:32:07;;;;;;;11.20;5.53;;;;;;;10.46;100.00;97464.59;5017321;28;20527;-66
2022/10/14 03:35:12;;;;;;;10.80;5.78;;;;;;;10.45;100.00;97458.34;5029132;28;20192;-66
2022/10/14 03:37:42;;;;;;;12.15;5.97;;;;;;;10.45;100.00;97462.94;5028249;28;20539;-66
2022/10/14 03:40:09;;;;;;;14.48;6.53;;;;;;;10.45;100.00;97454.81;5028080;28;20650;-66
2022/10/14 03:42:35;;;;;;;10.80;6.35;;;;;;;10.45;100.00;97452.94;5025902;28;20663;-66
2022/10/14 03:45:02;;;;;;;13.35;7.30;;;;;;;10.38;100.00;97447.69;5012200;28;20046;-67
2022/10/14 03:47:30;;;;;;;17.23;6.63;;;;;;;10.31;100.00;97449.72;5006935;28;20046;-66
2022/10/14 03:49:58;;;;;;;11.25;6.05;;;;;;;10.27;100.00;97452.13;5008395;28;20044;-66
2022/10/14 03:52:35;;;;;;;16.17;6.85;;;;;;;10.23;100.00;97448.28;5021692;28;20042;-66
2022/10/14 03:55:09;;;;;;;9.73;6.38;;;;;;;10.25;100.00;97448.03;5008769;28;20082;-66
2022/10/14 03:57:39;;;;;;;17.20;8.45;;;;;;;10.17;100.00;97435.72;5024311;28;20042;-66
2022/10/14 04:00:06;;;;;;;11.15;7.03;;;;;;;10.11;100.00;97442.13;5008482;28;20065;-66
2022/10/14 04:02:39;;;;;;;14.73;7.60;;;;;;;10.11;100.00;97431.31;5009045;28;20137;-66
2022/10/14 04:05:10;;;;;;;13.20;7.68;;;;;;;10.10;100.00;97425.06;5028322;28;20128;-66
2022/10/14 04:07:38;;;;;;;12.63;7.18;;;;;;;10.18;100.00;97425.72;5027505;28;20059;-66
2022/10/14 04:10:05;;;;;;;14.13;8.05;;;;;;;10.26;100.00;97433.44;5028984;28;20424;-66
2022/10/14 04:12:33;;;;;;;14.13;8.98;;;;;;;10.33;100.00;97433.25;5027213;28;20053;-66
2022/10/14 04:15:07;;;;;;;17.33;9.10;;;;;;;10.32;100.00;97426.19;5043890;28;20548;-66
2022/10/14 04:17:45;;;;;;;15.52;10.00;;;;;;;10.30;100.00;97423.75;5043856;28;20061;-66
2022/10/14 04:20:14;;;;;;;16.58;9.52;;;;;;;10.44;100.00;97415.25;5026888;28;20099;-66
2022/10/14 04:22:41;;;;;;;17.10;9.05;;;;;;;10.53;100.00;97413.78;5026299;28;20072;-66
2022/10/14 04:25:08;;;;;;;13.50;8.48;;;;;;;10.53;100.00;97406.50;5025753;28;20045;-66
2022/10/14 04:27:34;;;;;;;14.60;9.18;;;;;;;10.49;100.00;97413.47;5018676;28;20053;-66
2022/10/14 04:30:05;;;;;;;20.90;11.27;;;;;;;10.47;100.00;97415.59;5010876;28;20104;-66
2022/10/14 04:32:43;;;;;;;17.52;9.88;;;;;;;10.39;100.00;97408.72;5006139;28;20135;-66
2022/10/14 04:35:09;;;;;;;17.85;9.57;;;;;;;10.40;100.00;97412.25;5014040;28;20418;-66
2022/10/14 04:37:40;;;;;;;19.92;9.45;;;;;;;10.36;100.00;97409.19;5027198;28;20137;-66
2022/10/14 04:40:15;;;;;;;18.08;11.15;;;;;;;10.35;100.00;97407.56;5029009;28;20116;-66
2022/10/14 04:42:45;;;;;;;18.93;11.43;;;;;;;10.41;100.00;97400.34;5031220;28;20132;-66
2022/10/14 04:45:22;;;;;;;17.48;10.02;;;;;;;10.48;100.00;97406.44;5026705;28;20295;-66
2022/10/14 04:47:55;;;;;;;19.25;11.32;;;;;;;10.44;100.00;97402.59;5026255;28;20416;-66
2022/10/14 04:50:23;;;;;;;17.58;11.07;;;;;;;10.44;100.00;97405.28;5026549;28;20051;-66
2022/10/14 04:53:08;;;;;;;14.77;9.55;;;;;;;10.50;100.00;97392.63;5027639;28;20068;-66
2022/10/14 04:55:51;;;;;;;17.40;10.05;;;;;;;10.53;100.00;97392.13;5026678;28;20057;-66
2022/10/14 04:58:17;;;;;;;18.98;10.55;;;;;;;10.56;100.00;97385.38;5026176;28;20128;-66
2022/10/14 05:00:45;;;;;;;16.73;9.77;;;;;;;10.57;100.00;97378.94;5012212;28;20584;-66
2022/10/14 05:03:32;;;;;;;15.50;9.57;;;;;;;10.56;100.00;97366.44;5016861;28;20279;-66
2022/10/14 05:05:58;;;;;;;18.27;10.40;;;;;;;10.58;100.00;97367.81;5018481;28;20045;-66
2022/10/14 05:08:25;;;;;;;19.45;10.05;;;;;;;10.69;100.00;97366.06;5015092;28;20050;-66
2022/10/14 05:10:54;;;;;;;18.77;10.82;;;;;;;10.69;100.00;97363.34;5005808;28;20045;-66
2022/10/14 05:13:35;;;;;;;15.82;9.60;;;;;;;10.72;100.00;97368.25;5024554;28;20045;-66
2022/10/14 05:16:06;;;;;;;15.50;8.90;;;;;;;10.71;100.00;97360.38;5026264;28;20041;-66
2022/10/14 05:18:33;;;;;;;18.33;8.93;;;;;;;10.63;100.00;97354.38;5025725;28;20610;-66
2022/10/14 05:21:11;;;;;;;13.65;8.48;;;;;;;10.61;100.00;97356.50;5025249;28;20767;-66
2022/10/14 05:23:54;;;;;;;13.65;9.30;;;;;;;10.72;100.00;97362.03;5025425;28;20048;-66
2022/10/14 05:26:21;;;;;;;12.40;8.32;;;;;;;10.60;100.00;97356.75;5035660;28;20045;-66
2022/10/14 05:28:51;;;;;;;12.50;8.98;;;;;;;10.45;100.00;97350.09;5045801;28;20077;-66
2022/10/14 05:31:18;;;;;;;18.02;9.65;;;;;;;10.49;100.00;97353.09;5045541;28;20136;-66
2022/10/14 05:33:54;;;;;;;16.00;10.50;;;;;;;10.44;100.00;97344.88;5045546;28;20128;-66
2022/10/14 05:36:21;;;;;;;20.30;10.40;;;;;;;10.45;100.00;97350.09;5045560;28;20041;-63
2022/10/14 05:38:49;;;;;;;19.30;11.10;;;;;;;10.47;100.00;97345.22;5045739;28;20171;-63
2022/10/14 05:41:19;;;;;;;16.58;10.45;;;;;;;10.54;100.00;97348.56;5028686;28;20112;-63
2022/10/14 05:43:46;;;;;;;13.77;9.25;;;;;;;10.51;100.00;97345.56;5025875;28;20041;-63
2022/10/14 05:46:13;;;;;;;24.73;11.52;;;;;;;10.54;100.00;97343.16;5025278;28;20343;-63
2022/10/14 05:48:44;;;;;;;17.75;10.30;;;;;;;10.49;100.00;97345.78;5022540;28;20046;-63
2022/10/14 05:51:10;;;;;;;18.77;11.32;;;;;;;10.49;100.00;97339.56;5022868;28;20049;-63
2022/10/14 05:53:38;;;;;;;17.08;10.57;;;;;;;10.43;100.00;97332.44;5017247;28;20041;-63
2022/10/14 05:56:10;;;;;;;18.73;10.40;;;;;;;10.47;100.00;97339.81;5021680;28;20667;-63
2022/10/14 05:58:40;;;;;;;16.85;10.55;;;;;;;10.58;100.00;97337.22;5023835;28;20045;-63
2022/10/14 06:01:09;;;;;;;14.43;8.98;;;;;;;10.65;100.00;97340.56;5036227;28;20049;-63
2022/10/14 06:03:38;;;;;;;;;;;;;;;10.67;100.00;97335.72;5029916;28;20182;-62
2022/10/14 06:06:10;;;;;;;15.27;9.48;;;;;;;10.73;100.00;97336.59;5030800;28;19924;-63
2022/10/14 06:08:36;;;;;;;16.25;9.27;;;;;;;10.86;100.00;97341.59;5031484;28;20083;-63
2022/10/14 06:11:03;;;;;;;15.73;8.65;;;;;;;10.86;100.00;97336.19;5028795;28;20047;-63
2022/10/14 06:13:31;;;;;;;18.80;11.05;;;;;;;10.83;100.00;97338.59;5027029;28;20049;-63
2022/10/14 06:16:05;;;;;;;15.55;9.52;;;;;;;10.93;100.00;97336.81;5030693;28;20049;-63
2022/10/14 06:18:32;;;;;;;13.80;8.55;;;;;;;10.88;100.00;97336.75;5031608;28;20071;-63
2022/10/14 06:20:59;;;;;;;11.57;8.70;;;;;;;10.92;100.00;97332.44;5033583;28;20143;-63
2022/10/14 06:23:25;;;;;;;13.65;8.45;;;;;;;11.00;100.00;97324.94;5030587;28;20038;-63
2022/10/14 06:25:52;;;;;;;14.10;9.10;;;;;;;11.03;100.00;97325.25;5032196;28;20045;-63
2022/10/14 06:28:18;;;;;;;13.70;8.43;;;;;;;11.02;100.00;97317.41;5032652;28;20068;-62
2022/10/14 06:30:49;;;;;;;18.75;10.13;;;;;;;11.06;100.00;97323.94;5032322;28;20045;-63
2022/10/14 06:33:16;;;;;;;12.75;7.97;;;;;;;11.03;100.00;97321.72;5030465;28;20045;-63
2022/10/14 06:35:43;;;;;;;14.50;8.98;;;;;;;11.03;100.00;97322.53;5031981;28;20046;-63
2022/10/14 06:38:09;;;;;;;14.35;8.25;;;;;;;11.05;100.00;97323.09;5033009;28;20134;-63
2022/10/14 06:40:36;;;;;;;12.70;7.50;;;;;;;11.08;100.00;97324.47;5030472;28;20671;-63
2022/10/14 06:43:03;;;;;;;13.27;7.35;;;;;;;11.10;100.00;97319.63;5030108;28;20568;-63
2022/10/14 06:45:29;;;;;;;12.38;7.22;;;;;;;11.15;100.00;97313.44;5031897;28;20608;-63
2022/10/14 06:47:56;;;;;;;13.13;7.10;;;;;;;11.21;100.00;97307.00;5023925;28;20053;-63
2022/10/14 06:50:23;;;;;;;15.20;7.40;;;;;;;11.28;100.00;97306.78;5028075;28;20516;-63
2022/10/14 06:52:49;;;;;;;11.75;7.05;;;;;;;11.25;100.00;97310.00;5036825;28;20155;-63
2022/10/14 06:55:16;;;;;;;12.38;7.13;;;;;;;11.35;100.00;97312.78;5022384;28;20069;-63
2022/10/14 06:57:42;;;;;;;12.90;6.68;;;;;;;11.41;100.00;97314.47;5023686;28;20135;-62
2022/10/14 07:00:09;;;;;;;11.68;6.65;;;;;;;11.41;100.00;97314.47;5029556;28;20046;-62
2022/10/14 07:02:37;;;;;;;10.50;6.55;;;;;;;11.45;100.00;97314.78;5021441;28;20691;-62
2022/10/14 07:05:04;;;;;;;8.32;5.55;;;;;;;11.43;100.00;97311.50;5022642;28;20052;-62
2022/10/14 07:07:31;;;;;;;12.25;6.68;;;;;;;11.44;100.00;97310.44;5024195;28;20612;-62
2022/10/14 07:09:57;;;;;;;11.65;7.35;;;;;;;11.47;100.00;97314.50;5023453;28;20048;-62
2022/10/14 07:12:24;;;;;;;9.88;6.10;;;;;;;11.59;100.00;97312.44;5024808;28;20712;-62
2022/10/14 07:14:51;;;;;;;10.82;5.70;;;;;;;11.63;100.00;97307.31;5025148;28;20461;-63
2022/10/14 07:17:17;;;;;;;11.82;6.22;;;;;;;11.71;100.00;97309.53;5025925;28;20046;-62
2022/10/14 07:19:44;;;;;;;14.48;6.30;;;;;;;11.88;100.00;97308.56;5025666;28;20092;-62
2022/10/14 07:22:11;;;;;;;9.57;5.10;;;;;;;11.89;100.00;97315.59;5008720;28;20069;-62
2022/10/14 07:24:37;;;;;;;11.35;5.88;;;;;;;11.91;100.00;97316.19;5020212;28;20492;-62
2022/10/14 07:27:04;;;;;;;11.60;6.18;;;;;;;11.97;100.00;97312.41;5029641;28;20060;-62
2022/10/14 07:29:31;;;;;;;8.60;5.43;;;;;;;12.00;100.00;97314.59;5029950;28;20826;-63
2022/10/14 07:31:57;;;;;;;7.50;5.70;;;;;;;12.03;100.00;97313.25;5029190;28;20083;-62
2022/10/14 07:34:24;;;;;;;8.63;5.38;;;;;;;12.02;100.00;97317.06;5029848;28;20041;-62
2022/10/14 07:36:50;;;;;;;12.57;6.20;;;;;;;12.03;100.00;97319.50;5029616;28;20049;-63
2022/10/14 07:39:17;;;;;;;11.38;5.80;;;;;;;12.12;100.00;97319.84;5029153;28;20038;-62
2022/10/14 07:41:44;;;;;;;7.13;4.68;;;;;;;12.08;100.00;97313.31;5029199;28;20076;-62
2022/10/14 07:44:12;;;;;;;10.40;5.57;;;;;;;12.18;100.00;97312.56;5028833;28;20041;-63
2022/10/14 07:46:41;;;;;;;7.95;5.60;;;;;;;12.18;100.00;97321.53;5029486;28;20851;-62
2022/10/14 07:49:13;;;;;;;8.57;5.88;;;;;;;12.32;100.00;97321.84;5028458;28;20048;-62
2022/10/14 07:51:40;;;;;;;10.05;5.53;;;;;;;12.41;100.00;97324.03;5028895;28;20065;-62
2022/10/14 07:54:11;;;;;;;10.07;6.07;;;;;;;12.41;100.00;97332.19;5029033;28;20037;-62
2022/10/14 07:56:40;;;;;;;7.30;5.00;;;;;;;12.48;100.00;97327.34;5029054;28;20049;-63
2022/10/14 07:59:06;;;;;;;10.70;5.28;;;;;;;12.56;100.00;97317.84;5028996;28;20699;-63
2022/10/14 08:01:33;;;;;;;10.43;5.10;;;;;;;12.62;100.00;97322.25;5028221;28;20091;-62
2022/10/14 08:04:00;;;;;;;10.25;4.75;;;;;;;12.65;100.00;97313.56;5023868;28;20046;-62
2022/10/14 08:06:27;;;;;;;8.80;4.47;;;;;;;12.66;100.00;97307.03;5015125;28;20049;-62
2022/10/14 08:08:53;;;;;;;8.00;4.78;;;;;;;12.72;100.00;97310.59;5018704;28;20111;-63
2022/10/14 08:11:23;;;;;;;6.70;4.43;;;;;;;12.65;100.00;97308.13;5015964;28;20470;-63
2022/10/14 08:13:51;;;;;;;7.57;4.38;;;;;;;12.67;100.00;97310.56;5024949;28;20052;-56
2022/10/14 08:16:28;;;;;;;9.82;4.82;;;;;;;12.72;100.00;97302.44;5016218;28;20041;-57
2022/10/14 08:18:57;;;;;;;9.27;4.90;;;;;;;12.77;100.00;97302.44;5018430;28;20551;-55
2022/10/14 08:21:25;;;;;;;9.63;4.80;;;;;;;12.81;100.00;97305.44;5017479;28;20810;-58
2022/10/14 08:23:52;;;;;;;9.50;4.20;;;;;;;12.99;100.00;97313.09;5026787;28;20049;-58
2022/10/14 08:26:30;;;;;;;6.90;4.68;;;;;;;13.08;100.00;97307.94;5026626;28;20586;-58
2022/10/14 08:29:00;;;;;;;9.10;4.53;;;;;;;13.40;100.00;97297.91;5026324;28;20132;-57
2022/10/14 08:31:27;;;;;;;6.15;3.97;;;;;;;13.49;100.00;97292.78;5026205;28;20068;-58
2022/10/14 08:33:53;;;;;;;8.20;5.00;;;;;;;13.82;100.00;97301.41;5026713;28;20045;-58
2022/10/14 08:36:20;;;;;;;7.85;4.97;;;;;;;13.86;98.95;97294.34;5028498;28;20041;-57
2022/10/14 08:38:51;;;;;;;10.70;4.47;;;;;;;13.85;97.71;97292.72;5027945;28;20045;-54
2022/10/14 08:41:27;;;;;;;11.18;4.68;;;;;;;13.75;98.13;97295.47;5025780;28;20046;-57
2022/10/14 08:44:16;;;;;;;6.72;3.97;;;;;;;13.73;98.34;97290.28;5023777;28;20390;-57
2022/10/14 08:46:46;;;;;;;8.13;3.65;;;;;;;13.81;98.06;97296.28;5027730;28;20132;-56
2022/10/14 08:50:01;;;;;;;6.60;3.78;;;;;;;13.88;97.10;97296.78;5025382;28;20116;-54
2022/10/14 08:52:39;;;;;;;7.38;4.20;;;;;;;13.96;97.35;97289.97;5017010;28;20677;-54
2022/10/14 08:55:29;;;;;;;8.48;4.35;;;;;;;14.03;96.46;97291.31;5025657;28;20099;-56
2022/10/14 08:58:00;;;;;;;7.10;3.90;;;;;;;13.85;98.13;97298.16;5025231;28;20492;-58
2022/10/14 09:00:29;;;;;;;7.90;4.40;;;;;;;14.01;97.82;97296.22;5025509;28;20076;-58
2022/10/14 09:02:58;;;;;;;12.85;5.85;;;;;;;13.87;97.60;97295.16;5025427;28;20053;-56
2022/10/14 09:05:26;;;;;;;6.75;4.20;;;;;;;13.97;97.98;97284.25;5024872;28;20042;-57
2022/10/14 09:07:56;;;;;;;10.85;4.05;;;;;;;14.07;97.98;97286.13;5039001;28;20052;-57
2022/10/14 09:10:34;;;;;;;10.75;4.20;;;;;;;14.27;96.00;97298.06;5033752;28;20124;-58
2022/10/14 09:13:24;;;;;;;9.45;4.25;;;;;;;14.16;96.20;97287.19;5027245;28;20562;-56
2022/10/14 09:15:59;;;;;;;12.27;4.53;;;;;;;14.09;96.03;97294.00;5027147;28;20041;-57
2022/10/14 09:18:39;;;;;;;7.35;4.85;;;;;;;14.21;96.03;97290.97;5027620;28;20451;-57
2022/10/14 09:21:32;;;;;;;8.23;4.13;;;;;;;14.29;95.00;97293.13;5026672;28;20489;-56
2022/10/14 09:24:25;;;;;;;9.48;4.85;;;;;;;14.07;97.83;97296.22;5027776;28;20095;-58
2022/10/14 09:26:55;;;;;;;7.80;5.03;;;;;;;14.21;97.25;97294.53;5027083;28;20564;-58
2022/10/14 09:29:30;;;;;;;9.02;5.05;;;;;;;14.16;96.91;97295.34;5024899;28;20295;-57
2022/10/14 09:32:00;;;;;;;8.90;4.75;;;;;;;14.44;95.71;97284.91;5024654;28;20055;-57
2022/10/14 09:34:35;;;;;;;7.32;4.10;;;;;;;14.55;94.80;97288.38;5025085;28;20056;-58
2022/10/14 09:37:24;;;;;;;7.90;4.55;;;;;;;14.57;96.83;97285.41;5024761;28;20115;-60
2022/10/14 09:40:11;;;;;;;9.43;3.97;;;;;;;14.78;95.03;97280.66;5020568;28;20046;-53
2022/10/14 09:42:48;;;;;;;7.63;4.68;;;;;;;14.51;96.06;97286.50;5024126;28;20042;-62
2022/10/14 09:45:18;;;;;;;7.20;4.82;;;;;;;14.47;96.08;97279.97;5023841;28;20593;-62
2022/10/14 09:47:55;;;;;;;7.65;3.85;;;;;;;14.48;95.89;97276.97;5024863;28;20045;-62
2022/10/14 09:50:50;;;;;;;8.43;4.38;;;;;;;14.51;95.37;97279.16;5023884;28;20049;-62
2022/10/14 09:53:26;;;;;;;9.32;4.45;;;;;;;14.90;94.22;97280.34;5024555;28;20061;-63
2022/10/14 09:55:56;;;;;;;8.70;4.43;;;;;;;14.90;92.60;97265.88;5024687;28;20042;-62
2022/10/14 09:58:35;;;;;;;9.68;4.30;;;;;;;14.90;92.89;97261.25;5025002;28;20052;-62
2022/10/14 10:01:01;;;;;;;7.15;4.05;;;;;;;15.11;91.59;97257.56;5024127;28;20053;-62
2022/10/14 10:03:34;;;;;;;7.53;4.30;;;;;;;15.17;91.73;97259.13;5027244;28;20438;-62
2022/10/14 10:06:05;;;;;;;10.68;4.45;;;;;;;15.30;89.70;97250.28;5025856;28;20037;-61
2022/10/14 10:08:34;;;;;;;10.15;4.88;;;;;;;15.28;91.80;97248.94;5027285;28;20563;-62
2022/10/14 10:11:09;;;;;;;7.07;4.38;;;;;;;15.26;92.15;97245.72;5026456;28;20047;-62
2022/10/14 10:13:40;;;;;;;8.23;4.28;;;;;;;15.12;92.48;97240.09;5026775;28;20172;-62
2022/10/14 10:16:20;;;;;;;8.63;4.28;;;;;;;15.10;92.40;97234.91;5026631;28;20048;-62
2022/10/14 10:18:49;;;;;;;9.82;4.93;;;;;;;15.02;93.38;97236.34;5026553;28;20133;-63
2022/10/14 10:21:21;;;;;;;13.65;4.97;;;;;;;15.18;92.87;97228.03;5025800;28;20154;-62
2022/10/14 10:24:17;;;;;;;8.52;4.13;;;;;;;15.33;92.17;97233.38;5026390;28;20088;-63
2022/10/14 10:26:45;;;;;;;9.70;4.05;;;;;;;15.40;90.90;97234.97;5026331;28;20126;-63
2022/10/14 10:29:34;;;;;;;9.40;4.85;;;;;;;15.21;90.57;97228.28;5026027;28;20042;-62
2022/10/14 10:32:14;;;;;;;6.50;3.88;;;;;;;15.28;89.60;97222.50;5026119;28;20130;-63
2022/10/14 10:34:50;;;;;;;8.63;4.43;;;;;;;15.31;89.18;97221.13;5026546;28;20548;-63
2022/10/14 10:37:29;;;;;;;9.52;4.70;;;;;;;15.15;91.05;97221.25;5025651;28;20318;-62
2022/10/14 10:40:34;;;;;;;8.82;5.07;;;;;;;15.21;90.11;97211.09;5024093;28;20137;-62
2022/10/14 10:43:22;;;;;;;8.35;4.15;;;;;;;15.23;90.07;97206.19;5010748;28;20053;-62
2022/10/14 10:46:20;;;;;;;10.00;4.88;;;;;;;15.20;91.12;97199.41;5022341;28;20042;-63
2022/10/14 10:48:56;;;;;;;7.30;4.43;;;;;;;15.22;90.72;97199.09;5017277;28;20046;-63
2022/10/14 10:51:53;;;;;;;12.88;4.40;;;;;;;15.25;91.13;97190.34;5023588;28;20696;-63
2022/10/14 10:54:38;;;;;;;7.88;4.03;;;;;;;15.31;91.45;97191.94;5023142;28;20048;-63
2022/10/14 10:57:48;;;;;;;8.18;4.40;;;;;;;15.15;90.17;97199.41;5026388;28;20147;-62
2022/10/14 11:00:19;;;;;;;11.75;4.82;;;;;;;15.04;91.30;97189.72;5019573;28;20110;-63
2022/10/14 11:03:08;;;;;;;6.03;4.13;;;;;;;15.10;90.04;97194.00;5027205;28;20049;-62
2022/10/14 11:05:44;;;;;;;8.30;4.13;;;;;;;14.93;91.75;97192.50;5024570;28;20041;-63
2022/10/14 11:14:38;;;;;;;9.05;4.28;;;;;;;13.91;100.00;97192.81;5024192;28;20045;-63
2022/10/14 11:17:10;;;;;;;11.18;4.30;;;;;;;13.94;100.00;97184.09;4979890;28;20075;-63
2022/10/14 11:20:00;;;;;;;6.90;4.57;;;;;;;14.10;100.00;97184.00;5027804;28;20051;-63
2022/10/14 11:22:44;;;;;;;9.82;5.18;;;;;;;14.30;100.00;97177.69;5027656;28;20785;-63
2022/10/14 11:25:35;;;;;;;12.10;5.55;;;;;;;14.30;100.00;97174.94;5027754;28;20045;-63
2022/10/14 11:28:34;;;;;;;8.93;4.95;;;;;;;14.52;100.00;97176.44;5028154;28;20112;-63
2022/10/14 11:31:04;;;;;;;7.72;5.28;;;;;;;14.56;100.00;97161.97;5027749;28;20057;-63
2022/10/14 11:33:58;;;;;;;8.18;4.88;;;;;;;14.54;100.00;97160.63;5024604;28;20065;-63
2022/10/14 11:36:27;;;;;;;8.40;5.13;;;;;;;14.61;100.00;97163.84;5014337;28;20042;-63
2022/10/14 11:39:05;;;;;;;10.98;5.30;;;;;;;14.77;100.00;97159.13;5022964;28;20053;-63
2022/10/14 11:41:52;;;;;;;10.77;5.22;;;;;;;14.99;100.00;97149.66;5026807;28;20064;-63
2022/10/14 11:44:36;;;;;;;8.88;4.95;;;;;;;15.19;100.00;97151.38;5027184;28;20151;-63
2022/10/14 11:47:10;;;;;;;8.25;4.55;;;;;;;15.05;100.00;97148.53;5026604;28;20076;-63
2022/10/14 11:49:48;;;;;;;7.13;4.35;;;;;;;15.20;100.00;97150.31;5025939;28;20615;-63
2022/10/14 11:52:23;;;;;;;9.07;5.00;;;;;;;15.30;100.00;97138.47;5025828;28;20041;-63
2022/10/14 11:54:54;;;;;;;7.57;4.28;;;;;;;15.26;100.00;97131.16;5027315;28;20152;-62